Time;durP1;ratioP1;P1;durP2;ratioP2;P2;SDS_P1;SDS_P2;PMS_P1;PMS_P2;Temp;Humidity;BMP_temperature;BMP_pressure;BME280_temperature;BME280_humidity;BME280_pressure;Samples;Min_cycle;Max_cycle;Signal;HPM_P1;HPM_P2
2021/03/25 00:01:31;;;;;;;9.52;5.47;;;;;;;4.40;68.25;100994.00;4992934;28;20034;-74
2021/03/25 00:03:57;;;;;;;9.73;5.93;;;;;;;4.47;68.53;100993.50;5007349;28;20088;-74
2021/03/25 00:06:25;;;;;;;8.05;5.10;;;;;;;4.45;69.80;100984.88;5005739;28;20029;-75
2021/03/25 00:08:50;;;;;;;8.60;5.38;;;;;;;4.50;68.64;100981.97;5007653;28;20465;-74
2021/03/25 00:11:16;;;;;;;6.53;3.85;;;;;;;4.44;69.78;100975.38;4992950;28;20117;-74
2021/03/25 00:13:41;;;;;;;5.28;3.30;;;;;;;4.41;68.94;100978.19;5008730;28;20104;-75
2021/03/25 00:16:08;;;;;;;5.00;3.25;;;;;;;4.32;70.25;100973.56;5010360;28;20030;-74
2021/03/25 00:18:34;;;;;;;8.15;4.38;;;;;;;4.22;70.77;100981.19;5010266;28;20034;-74
2021/03/25 00:20:59;;;;;;;6.30;4.10;;;;;;;4.09;71.75;100979.44;5010372;28;20453;-74
2021/03/25 00:23:25;;;;;;;5.82;4.10;;;;;;;3.97;70.99;100973.22;4991582;28;20044;-76
2021/03/25 00:25:51;;;;;;;7.05;4.30;;;;;;;3.92;72.47;100978.75;5010287;28;20045;-74
2021/03/25 00:28:18;;;;;;;6.68;3.80;;;;;;;3.94;74.27;100976.03;5008686;28;20556;-74
2021/03/25 00:30:44;;;;;;;6.05;3.83;;;;;;;3.95;73.15;100975.09;5010029;28;20030;-75
2021/03/25 00:33:13;;;;;;;5.85;3.65;;;;;;;4.04;70.24;100971.88;5004421;28;20034;-74
2021/03/25 00:35:39;;;;;;;4.63;3.58;;;;;;;4.02;71.25;100965.91;5008359;28;20071;-74
2021/03/25 00:38:05;;;;;;;6.22;3.60;;;;;;;3.92;72.08;100970.91;4992345;28;20511;-74
2021/03/25 00:40:30;;;;;;;6.80;3.78;;;;;;;3.85;71.67;100964.38;5009612;28;20030;-74
2021/03/25 00:42:56;;;;;;;5.97;3.40;;;;;;;3.85;72.19;100968.78;5009313;28;20521;-73
2021/03/25 00:45:29;;;;;;;7.80;3.70;;;;;;;3.88;72.31;100965.97;4992047;28;20056;-74
2021/03/25 00:47:54;;;;;;;4.55;3.00;;;;;;;3.92;69.89;100967.44;5009350;28;20025;-73
2021/03/25 00:50:32;;;;;;;5.70;3.50;;;;;;;3.91;72.70;100968.38;4991458;28;20552;-75
2021/03/25 00:52:58;;;;;;;6.82;4.20;;;;;;;3.95;69.54;100962.84;5006641;28;20431;-73
2021/03/25 00:55:25;;;;;;;6.53;4.05;;;;;;;3.87;72.01;100965.13;4991665;28;20074;-75
2021/03/25 00:57:50;;;;;;;7.30;4.28;;;;;;;3.75;72.21;100963.28;5009116;28;20034;-73
2021/03/25 01:00:22;;;;;;;5.70;3.22;;;;;;;3.68;74.72;100969.84;4991453;28;20040;-73
2021/03/25 01:02:47;;;;;;;5.40;3.13;;;;;;;3.72;72.23;100964.31;5009550;28;20103;-73
2021/03/25 01:05:13;;;;;;;6.28;3.35;;;;;;;3.73;71.59;100954.69;5009144;28;20037;-72
2021/03/25 01:07:38;;;;;;;6.60;3.85;;;;;;;3.66;71.99;100961.25;5004535;28;20393;-72
2021/03/25 01:10:31;;;;;;;5.22;3.50;;;;;;;3.55;75.14;100960.16;5009376;28;20441;-72
2021/03/25 01:12:59;;;;;;;6.80;3.63;;;;;;;3.55;73.67;100960.16;5006645;28;20095;-73
2021/03/25 01:15:24;;;;;;;6.97;4.57;;;;;;;3.55;73.13;100962.78;5001788;28;20033;-72
2021/03/25 01:17:55;;;;;;;5.93;3.80;;;;;;;3.53;72.57;100955.97;4999240;28;20034;-73
2021/03/25 01:20:25;;;;;;;8.98;5.13;;;;;;;3.59;72.14;100963.41;5008691;28;20077;-73
2021/03/25 01:22:51;;;;;;;10.52;5.40;;;;;;;3.59;71.19;100959.00;5003141;28;20133;-74
2021/03/25 01:25:18;;;;;;;9.52;5.45;;;;;;;3.58;73.33;100949.50;5008923;28;20497;-72
2021/03/25 01:27:44;;;;;;;9.20;5.60;;;;;;;3.60;72.54;100950.25;5007349;28;20125;-74
2021/03/25 01:30:10;;;;;;;8.40;5.85;;;;;;;3.63;73.31;100945.75;5008427;28;20038;-73
2021/03/25 01:32:36;;;;;;;10.27;5.03;;;;;;;3.65;73.54;100942.13;4980620;28;20513;-72
2021/03/25 01:35:01;;;;;;;6.90;4.60;;;;;;;3.59;73.45;100951.16;4991064;28;20076;-74
2021/03/25 01:37:26;;;;;;;5.18;3.53;;;;;;;3.56;73.62;100947.91;5008843;28;20041;-72
2021/03/25 01:39:52;;;;;;;6.28;4.50;;;;;;;3.49;74.31;100944.84;5008809;28;20181;-72
2021/03/25 01:42:21;;;;;;;6.53;4.47;;;;;;;3.43;74.46;100947.81;4990953;28;20042;-73
2021/03/25 01:44:46;;;;;;;7.60;5.18;;;;;;;3.28;74.45;100944.41;5009368;28;20038;-73
2021/03/25 01:47:11;;;;;;;7.85;5.03;;;;;;;3.22;74.63;100943.94;4997187;28;20526;-72
2021/03/25 01:49:37;;;;;;;6.95;4.63;;;;;;;3.23;75.50;100943.00;5005767;28;20172;-73
2021/03/25 01:52:31;;;;;;;7.43;4.63;;;;;;;3.32;75.07;100940.66;5008274;28;20498;-73
2021/03/25 01:55:12;;;;;;;7.75;4.70;;;;;;;3.38;73.61;100939.44;5008945;28;20483;-72
2021/03/25 01:58:00;;;;;;;10.07;6.23;;;;;;;3.47;72.61;100928.41;5005535;28;20038;-72
2021/03/25 02:00:45;;;;;;;9.02;5.63;;;;;;;3.49;72.77;100920.47;5008351;28;20042;-73
2021/03/25 02:03:38;;;;;;;8.30;5.30;;;;;;;3.53;72.62;100922.81;5002470;28;20049;-72
2021/03/25 02:06:41;;;;;;;9.90;6.13;;;;;;;3.55;72.82;100925.31;4982949;28;20042;-72
2021/03/25 02:09:32;;;;;;;7.35;4.97;;;;;;;3.49;74.79;100923.94;5008880;28;20172;-74
2021/03/25 02:12:04;;;;;;;;;;;;;;;3.51;74.47;100919.44;5004118;28;20096;-72
2021/03/25 02:14:43;;;;;;;8.43;5.18;;;;;;;3.54;72.56;100914.00;5008053;28;19917;-73
2021/03/25 02:18:07;;;;;;;6.32;4.40;;;;;;;3.44;74.98;100919.94;5002185;28;20038;-72
2021/03/25 02:21:10;;;;;;;5.72;3.55;;;;;;;3.36;73.57;100917.78;4963492;28;20061;-74
2021/03/25 02:23:47;;;;;;;7.03;4.78;;;;;;;3.21;74.68;100914.34;5006723;28;20049;-73
2021/03/25 02:26:32;;;;;;;7.20;4.85;;;;;;;3.13;74.97;100908.78;4990253;28;20027;-73
2021/03/25 02:29:06;;;;;;;7.13;5.00;;;;;;;3.08;76.01;100903.81;5007924;28;20034;-73
2021/03/25 02:31:35;;;;;;;6.30;3.78;;;;;;;3.14;73.82;100894.75;4987895;28;20030;-72
2021/03/25 02:34:06;;;;;;;5.13;3.85;;;;;;;3.18;73.65;100894.47;5001197;28;20030;-73
2021/03/25 02:36:39;;;;;;;6.72;4.32;;;;;;;3.19;76.03;100893.56;5008347;28;20104;-72
2021/03/25 02:39:11;;;;;;;6.07;3.58;;;;;;;3.17;74.88;100895.41;5007416;28;20026;-73
2021/03/25 02:41:43;;;;;;;7.70;5.00;;;;;;;3.02;75.75;100898.13;5008531;28;20062;-72
2021/03/25 02:44:12;;;;;;;10.27;6.07;;;;;;;2.76;76.66;100896.19;5007123;28;20026;-73
2021/03/25 02:46:39;;;;;;;7.78;5.32;;;;;;;2.69;76.61;100894.00;5008242;28;20133;-72
2021/03/25 02:49:08;;;;;;;8.55;5.03;;;;;;;2.67;77.03;100901.97;5002164;28;20034;-72
2021/03/25 02:51:40;;;;;;;6.60;4.45;;;;;;;2.67;77.09;100891.50;5011391;28;20038;-72
2021/03/25 02:54:06;;;;;;;7.35;5.10;;;;;;;2.65;77.55;100897.75;5011743;28;20061;-73
2021/03/25 02:56:44;;;;;;;7.57;4.25;;;;;;;2.62;77.02;100904.00;5008419;28;20541;-72
2021/03/25 02:59:36;;;;;;;7.25;4.30;;;;;;;2.72;76.41;100909.50;5003531;28;20084;-72
2021/03/25 03:02:12;;;;;;;7.35;4.57;;;;;;;2.78;78.12;100898.69;5009398;28;20039;-72
2021/03/25 03:04:39;;;;;;;6.85;4.20;;;;;;;2.86;75.48;100900.81;5011750;28;20057;-72
2021/03/25 03:07:11;;;;;;;8.70;6.00;;;;;;;2.93;74.68;100892.53;5004183;28;20461;-74
2021/03/25 03:09:44;;;;;;;10.30;6.13;;;;;;;2.97;75.28;100901.03;4986564;28;20164;-73
2021/03/25 03:12:16;;;;;;;11.80;7.00;;;;;;;3.00;75.10;100897.38;4989335;28;20068;-73
2021/03/25 03:14:47;;;;;;;8.55;5.65;;;;;;;2.96;76.49;100894.97;5004152;28;20038;-74
2021/03/25 03:17:19;;;;;;;8.20;5.40;;;;;;;2.90;77.30;100897.09;5011080;28;20034;-72
2021/03/25 03:19:52;;;;;;;10.10;6.38;;;;;;;2.96;75.22;100901.97;5001632;28;20062;-73
2021/03/25 03:22:17;;;;;;;8.25;4.90;;;;;;;2.91;77.13;100891.78;5005446;28;20034;-72
2021/03/25 03:24:43;;;;;;;9.07;4.75;;;;;;;2.86;77.12;100887.75;4992023;28;20030;-72
2021/03/25 03:27:23;;;;;;;6.13;4.25;;;;;;;2.86;77.09;100895.59;4993375;28;20037;-72
2021/03/25 03:29:52;;;;;;;8.88;5.70;;;;;;;2.74;77.30;100894.56;5011250;28;20125;-72
2021/03/25 03:32:27;;;;;;;8.80;5.10;;;;;;;2.63;77.46;100894.41;5008404;28;20034;-72
2021/03/25 03:35:02;;;;;;;8.30;4.50;;;;;;;2.56;77.73;100886.09;5010747;28;20030;-72
2021/03/25 03:37:36;;;;;;;7.65;4.47;;;;;;;2.51;77.56;100888.13;4993642;28;20048;-72
2021/03/25 03:40:08;;;;;;;7.53;4.90;;;;;;;2.45;78.21;100898.91;5010292;28;20276;-73
2021/03/25 03:42:36;;;;;;;6.43;3.85;;;;;;;2.53;76.96;100894.09;5010075;28;20689;-73
2021/03/25 03:45:04;;;;;;;9.27;6.07;;;;;;;2.66;75.95;100899.41;5002682;28;20129;-72
2021/03/25 03:47:33;;;;;;;6.80;4.40;;;;;;;2.66;77.49;100900.25;5011612;28;20037;-72
2021/03/25 03:50:13;;;;;;;9.27;5.22;;;;;;;2.75;75.81;100894.50;5009212;28;20471;-72
2021/03/25 03:52:40;;;;;;;7.82;4.78;;;;;;;2.81;75.68;100895.03;5010911;28;20449;-73
2021/03/25 03:55:10;;;;;;;7.75;4.60;;;;;;;2.76;76.86;100893.56;5006480;28;20367;-73
2021/03/25 03:58:03;;;;;;;5.90;4.07;;;;;;;2.77;75.63;100897.00;5000552;28;20081;-73
2021/03/25 04:00:36;;;;;;;6.00;4.13;;;;;;;2.76;78.57;100896.19;5006019;28;20058;-73
2021/03/25 04:03:20;;;;;;;10.43;5.72;;;;;;;2.83;75.30;100890.56;5009127;28;20037;-73
2021/03/25 04:05:51;;;;;;;8.38;4.95;;;;;;;2.67;77.15;100888.03;5010449;28;20084;-72
2021/03/25 04:08:27;;;;;;;8.32;5.72;;;;;;;2.61;76.25;100883.19;5005873;28;20034;-73
2021/03/25 04:11:22;;;;;;;9.10;5.65;;;;;;;2.63;77.39;100889.19;5002424;28;20116;-72
2021/03/25 04:13:55;;;;;;;7.03;4.97;;;;;;;2.54;77.77;100894.00;4978481;28;20455;-72
2021/03/25 04:16:25;;;;;;;8.45;5.45;;;;;;;2.45;78.38;100894.53;5004666;28;20030;-73
2021/03/25 04:19:21;;;;;;;10.77;6.00;;;;;;;2.27;78.63;100893.84;5010221;28;20034;-72
2021/03/25 04:21:56;;;;;;;6.30;4.10;;;;;;;2.27;78.56;100893.84;5006755;28;20037;-72
2021/03/25 04:24:26;;;;;;;8.50;5.10;;;;;;;2.21;79.15;100881.16;4992361;28;20040;-73
2021/03/25 04:27:11;;;;;;;8.95;5.60;;;;;;;2.22;78.93;100884.63;4989868;28;20041;-72
2021/03/25 04:29:58;;;;;;;6.05;3.95;;;;;;;2.24;78.71;100887.97;4992722;28;20037;-72
2021/03/25 04:32:24;;;;;;;8.45;4.97;;;;;;;2.23;78.44;100891.53;5003749;28;20129;-73
2021/03/25 04:34:51;;;;;;;8.60;4.40;;;;;;;2.20;78.73;100891.69;5009570;28;20564;-72
2021/03/25 04:37:16;;;;;;;9.43;5.60;;;;;;;2.09;79.93;100893.13;4992701;28;20087;-74
2021/03/25 04:39:43;;;;;;;6.38;4.55;;;;;;;2.10;79.79;100894.00;5008662;28;20030;-73
2021/03/25 04:42:09;;;;;;;6.32;3.97;;;;;;;2.16;80.12;100891.03;5008370;28;20193;-73
2021/03/25 04:44:47;;;;;;;6.15;3.80;;;;;;;2.25;79.02;100893.09;4991920;28;20053;-72
2021/03/25 04:47:25;;;;;;;7.68;5.07;;;;;;;2.32;79.19;100897.03;4988986;28;20034;-74
2021/03/25 04:49:59;;;;;;;6.65;4.25;;;;;;;2.37;79.88;100894.16;5003056;28;20611;-72
2021/03/25 04:52:27;;;;;;;7.05;3.70;;;;;;;2.43;78.41;100903.38;5009888;28;20113;-74
2021/03/25 04:54:54;;;;;;;5.68;3.55;;;;;;;2.47;77.70;100894.47;5005754;28;20056;-72
2021/03/25 04:57:35;;;;;;;11.32;6.50;;;;;;;2.58;76.54;100892.06;4997080;28;20034;-72
2021/03/25 05:00:05;;;;;;;10.45;6.22;;;;;;;2.60;76.93;100889.34;5001580;28;20042;-74
2021/03/25 05:02:34;;;;;;;6.70;4.53;;;;;;;2.61;78.45;100884.03;5009579;28;20038;-72
2021/03/25 05:05:01;;;;;;;8.35;5.45;;;;;;;2.66;78.41;100889.81;5002130;28;20072;-74
2021/03/25 05:07:31;;;;;;;10.63;4.90;;;;;;;2.72;77.22;100891.22;5008033;28;20049;-72
2021/03/25 05:09:59;;;;;;;6.13;3.72;;;;;;;2.73;78.45;100883.28;5003024;28;20040;-74
2021/03/25 05:12:25;;;;;;;6.22;3.85;;;;;;;2.74;79.26;100885.00;5000261;28;20088;-75
2021/03/25 05:15:06;;;;;;;10.70;5.93;;;;;;;2.82;76.50;100887.13;4985207;28;20029;-72
2021/03/25 05:17:56;;;;;;;10.38;6.53;;;;;;;2.83;76.47;100886.19;4991568;28;20053;-74
2021/03/25 05:20:46;;;;;;;7.45;4.13;;;;;;;2.83;77.04;100885.34;5003797;28;20049;-74
2021/03/25 05:23:29;;;;;;;8.02;4.38;;;;;;;2.85;76.91;100886.94;5003517;28;20524;-74
2021/03/25 05:26:04;;;;;;;9.57;5.28;;;;;;;2.88;76.37;100878.06;5007557;28;20037;-74
2021/03/25 05:28:42;;;;;;;8.18;4.78;;;;;;;2.88;76.86;100880.69;5009042;28;20033;-74
2021/03/25 05:31:12;;;;;;;8.98;5.72;;;;;;;2.92;77.03;100879.56;5009187;28;20030;-74
2021/03/25 05:33:38;;;;;;;7.10;4.15;;;;;;;2.91;77.87;100883.13;5007675;28;20061;-74
2021/03/25 05:36:10;;;;;;;7.25;4.10;;;;;;;2.96;77.84;100884.50;5009160;28;20037;-73
2021/03/25 05:38:37;;;;;;;6.20;4.30;;;;;;;3.04;78.40;100886.66;4990761;28;20034;-72
2021/03/25 05:41:05;;;;;;;5.43;3.67;;;;;;;3.12;76.89;100888.78;5009549;28;20049;-72
2021/03/25 05:44:08;;;;;;;9.10;4.85;;;;;;;3.24;76.25;100890.63;5008635;28;20630;-72
2021/03/25 05:46:47;;;;;;;7.40;4.85;;;;;;;3.26;77.25;100883.53;4987793;28;20380;-72
2021/03/25 05:49:15;;;;;;;12.68;7.68;;;;;;;3.45;76.54;100890.22;5005389;28;20034;-72
2021/03/25 05:51:49;;;;;;;13.20;7.22;;;;;;;3.53;76.46;100890.59;5008994;28;20421;-73
2021/03/25 05:54:44;;;;;;;8.15;4.78;;;;;;;3.61;76.93;100891.78;4994753;28;20041;-73
2021/03/25 05:57:34;;;;;;;9.95;5.78;;;;;;;3.72;76.55;100898.06;5008633;28;20038;-73
2021/03/25 06:00:15;;;;;;;6.22;4.10;;;;;;;3.78;76.59;100902.94;5001805;28;20034;-73
2021/03/25 06:03:08;;;;;;;10.35;6.63;;;;;;;3.94;76.57;100894.94;5007413;28;20121;-73
2021/03/25 06:05:34;;;;;;;8.93;5.40;;;;;;;4.15;76.91;100900.53;5007960;28;20030;-73
2021/03/25 06:08:18;;;;;;;10.95;5.80;;;;;;;4.30;76.45;100901.31;4991494;28;20072;-73
2021/03/25 06:11:09;;;;;;;10.23;6.00;;;;;;;4.93;74.38;100904.88;5001990;28;20046;-73
2021/03/25 06:13:38;;;;;;;11.40;5.97;;;;;;;5.65;71.90;100892.78;4983091;28;20398;-74
2021/03/25 06:16:31;;;;;;;10.88;5.78;;;;;;;6.24;69.33;100902.47;4998639;28;20029;-74
2021/03/25 06:19:24;;;;;;;8.88;5.45;;;;;;;6.83;67.26;100904.16;5000806;28;20457;-74
2021/03/25 06:22:02;;;;;;;10.15;5.22;;;;;;;7.38;64.27;100910.34;4990407;28;20048;-74
2021/03/25 06:24:54;;;;;;;8.35;5.45;;;;;;;7.88;63.49;100910.72;5008866;28;20045;-74
2021/03/25 06:27:45;;;;;;;8.48;5.60;;;;;;;8.35;61.26;100909.56;4992072;28;20501;-75
2021/03/25 06:30:18;;;;;;;8.15;5.10;;;;;;;8.61;59.95;100910.06;5001742;28;20451;-74
2021/03/25 06:32:54;;;;;;;11.77;5.20;;;;;;;8.98;58.67;100909.53;5005093;28;20037;-74
2021/03/25 06:35:28;;;;;;;10.38;5.80;;;;;;;9.19;57.75;100927.97;4990001;28;20401;-74
2021/03/25 06:38:04;;;;;;;8.13;5.15;;;;;;;9.43;57.70;100917.06;5013414;28;20212;-74
2021/03/25 06:41:09;;;;;;;8.80;5.43;;;;;;;9.54;56.73;100922.25;5004574;28;20165;-75
2021/03/25 06:44:06;;;;;;;9.40;5.45;;;;;;;9.71;56.64;100928.66;4962629;28;20249;-75
2021/03/25 06:46:39;;;;;;;10.20;5.63;;;;;;;9.90;55.46;100931.34;4995013;28;20030;-75
2021/03/25 06:49:09;;;;;;;8.32;5.70;;;;;;;10.04;54.70;100930.09;5011127;28;20030;-74
2021/03/25 06:51:35;;;;;;;7.88;5.57;;;;;;;10.19;54.69;100933.16;5011352;28;20104;-75
2021/03/25 06:54:16;;;;;;;9.02;5.60;;;;;;;10.55;54.06;100933.44;5009899;28;20034;-74
2021/03/25 06:56:47;;;;;;;9.17;5.30;;;;;;;10.60;52.55;100944.41;5011392;28;20030;-75
2021/03/25 06:59:33;;;;;;;8.40;5.70;;;;;;;10.81;52.37;100938.97;5012028;28;20034;-74
2021/03/25 07:02:07;;;;;;;7.82;5.32;;;;;;;11.01;51.65;100939.72;5009744;28;20041;-75
2021/03/25 07:04:38;;;;;;;8.32;5.20;;;;;;;11.17;50.33;100944.41;5010421;28;20253;-75
2021/03/25 07:07:07;;;;;;;8.05;5.38;;;;;;;11.41;49.66;100947.38;5010660;28;20101;-74
2021/03/25 07:09:36;;;;;;;8.10;4.90;;;;;;;11.52;49.91;100940.22;5009194;28;20034;-74
2021/03/25 07:12:04;;;;;;;9.25;5.05;;;;;;;11.82;49.12;100944.34;5007743;28;20040;-74
2021/03/25 07:14:39;;;;;;;8.52;5.40;;;;;;;12.04;48.59;100941.31;5004882;28;20057;-73
2021/03/25 07:17:06;;;;;;;7.68;5.30;;;;;;;12.23;47.59;100936.84;5001853;28;20035;-74
2021/03/25 07:19:34;;;;;;;9.23;5.30;;;;;;;12.17;47.95;100958.66;4993607;28;20056;-74
2021/03/25 07:22:19;;;;;;;10.77;5.18;;;;;;;12.32;47.23;100943.84;4997968;28;20045;-73
2021/03/25 07:24:44;;;;;;;8.13;5.15;;;;;;;12.45;47.10;100949.63;4986408;28;20123;-74
2021/03/25 07:27:17;;;;;;;7.05;4.57;;;;;;;12.69;47.23;100948.13;5009884;28;20128;-74
2021/03/25 07:29:46;;;;;;;8.75;4.95;;;;;;;13.00;45.91;100950.31;5010190;28;20033;-75
2021/03/25 07:32:11;;;;;;;7.63;5.03;;;;;;;13.13;45.41;100964.84;5010466;28;20172;-72
2021/03/25 07:34:42;;;;;;;9.00;4.97;;;;;;;13.31;44.43;100962.13;5011200;28;20142;-71
2021/03/25 07:37:09;;;;;;;8.68;5.40;;;;;;;13.45;43.80;100954.56;4997241;28;20661;-72
2021/03/25 07:39:47;;;;;;;11.20;4.75;;;;;;;13.53;44.25;100962.56;5010816;28;20030;-72
2021/03/25 07:42:24;;;;;;;7.53;4.55;;;;;;;13.56;44.31;100960.41;4991562;28;20081;-72
2021/03/25 07:44:49;;;;;;;8.60;4.70;;;;;;;13.52;43.77;100966.22;4997423;28;20041;-72
2021/03/25 07:47:26;;;;;;;7.85;5.10;;;;;;;13.19;43.76;100971.34;4992016;28;20387;-72
2021/03/25 07:49:51;;;;;;;7.47;4.63;;;;;;;13.10;44.69;100969.63;5008089;28;20544;-72
2021/03/25 07:52:32;;;;;;;6.63;4.47;;;;;;;13.12;44.59;100971.13;5010819;28;20034;-71
2021/03/25 07:55:19;;;;;;;7.83;4.60;;;;;;;13.04;45.00;100972.88;4999385;28;20038;-70
2021/03/25 07:57:46;;;;;;;7.32;4.90;;;;;;;13.08;44.20;100974.25;4992116;28;20431;-71
2021/03/25 08:00:35;;;;;;;11.27;5.22;;;;;;;13.17;44.87;100974.13;5002132;28;20565;-72
2021/03/25 08:03:12;;;;;;;7.78;5.20;;;;;;;13.30;43.52;100975.56;5003859;28;20101;-71
2021/03/25 08:05:38;;;;;;;8.52;4.93;;;;;;;13.50;43.91;100977.00;5006937;28;20080;-71
2021/03/25 08:08:16;;;;;;;10.70;5.93;;;;;;;13.73;43.25;100974.59;5011272;28;20533;-72
2021/03/25 08:10:44;;;;;;;7.93;5.20;;;;;;;13.75;43.18;100969.09;5005307;28;20042;-72
2021/03/25 08:13:23;;;;;;;8.30;5.00;;;;;;;14.07;42.65;100976.34;4993409;28;20054;-72
2021/03/25 08:15:53;;;;;;;9.25;5.20;;;;;;;14.14;42.13;100963.22;5000732;28;20120;-71
2021/03/25 08:18:30;;;;;;;8.02;4.90;;;;;;;14.01;42.42;100971.66;5004528;28;20038;-72
2021/03/25 08:21:22;;;;;;;9.88;5.18;;;;;;;14.23;42.61;100962.22;4987060;28;20042;-71
2021/03/25 08:24:05;;;;;;;8.23;5.18;;;;;;;14.31;41.75;100972.03;4987486;28;20039;-71
2021/03/25 08:26:55;;;;;;;9.70;5.63;;;;;;;14.59;41.57;100969.91;5002590;28;20045;-71
2021/03/25 08:29:31;;;;;;;7.32;5.13;;;;;;;14.59;41.40;100970.75;4995540;28;20030;-71
2021/03/25 08:32:11;;;;;;;7.25;4.90;;;;;;;14.91;41.47;100969.03;5010474;28;20237;-71
2021/03/25 08:34:52;;;;;;;8.10;5.47;;;;;;;15.27;39.90;100968.63;5009800;28;20065;-71
2021/03/25 08:37:42;;;;;;;8.15;5.50;;;;;;;15.29;39.60;100977.28;5010628;28;20083;-71
2021/03/25 08:40:19;;;;;;;8.93;4.88;;;;;;;15.79;38.94;100973.41;5005047;28;20034;-72
2021/03/25 08:42:50;;;;;;;7.50;5.45;;;;;;;16.18;38.42;100974.34;4990277;28;20038;-71
2021/03/25 08:45:24;;;;;;;7.57;5.00;;;;;;;16.38;37.76;100972.88;4999805;28;20087;-72
2021/03/25 08:48:14;;;;;;;7.10;4.90;;;;;;;16.64;37.29;100969.81;5008984;28;20080;-71
2021/03/25 08:51:03;;;;;;;11.10;5.88;;;;;;;16.71;36.10;100983.28;4998995;28;20040;-73
2021/03/25 08:53:52;;;;;;;9.60;5.53;;;;;;;16.85;36.74;100987.84;4993119;28;20034;-71
2021/03/25 08:56:20;;;;;;;8.82;5.20;;;;;;;17.23;36.56;100976.25;5004440;28;20034;-72
2021/03/25 08:58:46;;;;;;;7.68;5.72;;;;;;;17.70;35.81;100975.03;5007775;28;20351;-72
2021/03/25 09:01:17;;;;;;;10.00;6.45;;;;;;;17.80;34.71;100973.75;4990762;28;20041;-71
2021/03/25 09:03:49;;;;;;;8.13;5.75;;;;;;;17.74;35.18;100970.97;4991905;28;20388;-71
2021/03/25 09:06:19;;;;;;;10.77;5.68;;;;;;;17.77;34.89;100973.25;4997155;28;20038;-71
2021/03/25 09:08:46;;;;;;;8.03;5.77;;;;;;;17.93;34.92;100969.56;5007648;28;20441;-72
2021/03/25 09:11:17;;;;;;;9.32;6.13;;;;;;;17.97;34.62;100968.16;4998305;28;20276;-71
2021/03/25 09:13:53;;;;;;;;;;;;;;;17.89;34.39;100974.44;4992237;28;20073;-71
2021/03/25 09:16:33;;;;;;;9.85;6.32;;;;;;;18.12;34.57;100970.78;4995208;28;19917;-72
2021/03/25 09:19:01;;;;;;;10.60;6.68;;;;;;;18.17;34.07;100971.88;4993781;28;20030;-71
2021/03/25 09:21:29;;;;;;;9.82;6.60;;;;;;;18.34;33.71;100969.75;4994225;28;20507;-72
2021/03/25 09:24:06;;;;;;;11.82;6.90;;;;;;;18.11;33.99;100969.13;4994440;28;20049;-71
2021/03/25 09:26:32;;;;;;;10.95;6.55;;;;;;;18.28;33.99;100973.19;4989540;28;20031;-72
2021/03/25 09:29:04;;;;;;;11.83;7.00;;;;;;;18.64;32.80;100969.63;5005676;28;20038;-71
2021/03/25 09:31:42;;;;;;;11.15;6.50;;;;;;;18.66;33.67;100963.03;4988474;28;20426;-73
2021/03/25 09:34:10;;;;;;;10.18;6.50;;;;;;;18.75;33.93;100969.06;4987653;28;20528;-72
2021/03/25 09:36:35;;;;;;;12.23;7.00;;;;;;;18.66;33.64;100967.53;4994116;28;20057;-72
2021/03/25 09:39:00;;;;;;;11.87;7.30;;;;;;;18.53;33.82;100975.50;5004728;28;20499;-71
2021/03/25 09:41:26;;;;;;;11.52;7.03;;;;;;;18.38;34.54;100965.69;5008201;28;20842;-72
2021/03/25 09:43:53;;;;;;;12.45;6.90;;;;;;;17.91;36.15;100967.06;5009692;28;20054;-71
2021/03/25 09:46:25;;;;;;;12.80;7.82;;;;;;;18.11;34.48;100972.63;5002024;28;20030;-71
2021/03/25 09:48:51;;;;;;;9.57;6.38;;;;;;;17.69;36.26;100966.16;4996873;28;20038;-72
2021/03/25 09:51:19;;;;;;;11.52;7.13;;;;;;;17.62;36.28;100960.75;5006214;28;20056;-72
2021/03/25 09:53:53;;;;;;;9.52;6.78;;;;;;;17.69;36.49;100968.84;5009331;28;20030;-72
2021/03/25 09:56:22;;;;;;;10.27;6.10;;;;;;;17.65;37.17;100977.44;5002169;28;20197;-72
2021/03/25 09:58:48;;;;;;;10.68;7.38;;;;;;;18.04;35.71;100972.56;4989977;28;20038;-72
2021/03/25 10:01:38;;;;;;;11.00;7.00;;;;;;;17.78;36.64;100981.09;4991390;28;20049;-71
2021/03/25 10:04:34;;;;;;;14.02;7.63;;;;;;;17.76;36.63;100972.44;5012626;28;20054;-72
2021/03/25 10:07:09;;;;;;;11.85;7.20;;;;;;;17.02;38.67;100977.84;4984479;28;20042;-71
2021/03/25 10:09:50;;;;;;;11.27;6.32;;;;;;;17.36;37.32;100971.94;4998423;28;20042;-71
2021/03/25 10:12:43;;;;;;;11.15;6.80;;;;;;;17.40;37.14;100969.72;5013457;28;20117;-72
2021/03/25 10:15:41;;;;;;;10.23;6.20;;;;;;;16.83;38.23;100967.66;4999262;28;20038;-71
2021/03/25 10:18:12;;;;;;;10.32;6.57;;;;;;;16.63;38.65;100970.81;4983791;28;20034;-71
2021/03/25 10:20:44;;;;;;;10.93;6.75;;;;;;;16.19;39.90;100960.84;4992157;28;20094;-71
2021/03/25 10:23:30;;;;;;;12.55;7.15;;;;;;;16.49;39.75;100958.25;4995277;28;20395;-71
2021/03/25 10:26:16;;;;;;;11.48;7.32;;;;;;;16.57;38.60;100960.88;5012906;28;20034;-71
2021/03/25 10:29:02;;;;;;;14.40;7.90;;;;;;;16.50;39.28;100957.25;5012857;28;20034;-71
2021/03/25 10:31:43;;;;;;;13.52;7.32;;;;;;;16.43;39.79;100954.47;5012696;28;20498;-71
2021/03/25 10:34:30;;;;;;;12.35;6.57;;;;;;;16.51;40.57;100958.91;5006430;28;20045;-72
2021/03/25 10:37:17;;;;;;;10.35;6.97;;;;;;;16.42;40.09;100951.97;4991577;28;20030;-72
2021/03/25 10:39:44;;;;;;;12.20;7.28;;;;;;;16.74;39.39;100954.34;4992782;28;20034;-71
2021/03/25 10:42:26;;;;;;;11.52;7.13;;;;;;;16.68;39.38;100947.06;4986369;28;20112;-72
2021/03/25 10:44:54;;;;;;;9.55;6.55;;;;;;;16.60;40.53;100952.50;5012278;28;20034;-71
2021/03/25 10:47:23;;;;;;;12.18;6.82;;;;;;;16.75;39.76;100941.84;4991726;28;20031;-72
2021/03/25 10:49:57;;;;;;;13.13;7.43;;;;;;;16.66;39.88;100954.44;5004815;28;20101;-71
2021/03/25 10:52:36;;;;;;;10.82;6.63;;;;;;;16.75;39.70;100947.16;5007493;28;20108;-71
2021/03/25 10:55:25;;;;;;;12.27;6.90;;;;;;;17.02;39.88;100943.09;5009883;28;20034;-72
2021/03/25 10:57:53;;;;;;;13.38;6.97;;;;;;;17.12;38.96;100932.13;5012451;28;20034;-71
2021/03/25 11:00:35;;;;;;;11.82;7.20;;;;;;;16.82;40.39;100933.97;4997141;28;20034;-72
2021/03/25 11:03:02;;;;;;;12.65;7.60;;;;;;;16.92;39.61;100934.50;4987107;28;20179;-71
2021/03/25 11:05:31;;;;;;;16.67;8.90;;;;;;;17.17;38.36;100925.22;5004081;28;20045;-71
2021/03/25 11:07:59;;;;;;;13.02;7.68;;;;;;;17.25;39.19;100932.28;4994428;28;20033;-71
2021/03/25 11:10:36;;;;;;;19.48;9.20;;;;;;;17.37;38.74;100927.31;4999697;28;20226;-71
2021/03/25 11:13:18;;;;;;;16.10;8.77;;;;;;;17.31;38.17;100925.41;5000656;28;20038;-71
2021/03/25 11:15:44;;;;;;;;;;;;;;;17.45;38.57;100919.19;5010058;28;20157;-71
2021/03/25 11:18:26;;;;;;;13.10;7.55;;;;;;;17.58;38.02;100918.50;4990559;28;19914;-71
2021/03/25 11:20:52;;;;;;;16.48;8.75;;;;;;;17.69;37.46;100922.56;4992123;28;21299;-71
2021/03/25 11:23:21;;;;;;;15.43;8.73;;;;;;;17.45;36.83;100921.03;5000221;28;20046;-71
2021/03/25 11:25:47;;;;;;;14.75;8.32;;;;;;;17.50;37.98;100916.78;4994153;28;20403;-71
2021/03/25 11:28:15;;;;;;;12.40;7.78;;;;;;;17.57;37.57;100911.53;4993711;28;20034;-71
2021/03/25 11:30:42;;;;;;;15.68;8.88;;;;;;;17.75;36.93;100921.78;5011956;28;20509;-71
2021/03/25 11:33:27;;;;;;;14.90;8.98;;;;;;;17.76;36.94;100918.13;4998978;28;20458;-71
2021/03/25 11:35:54;;;;;;;12.07;7.18;;;;;;;17.55;39.15;100908.19;4992336;28;20525;-71
2021/03/25 11:38:27;;;;;;;11.35;7.60;;;;;;;17.50;38.49;100915.97;4996015;28;20449;-71
2021/03/25 11:40:57;;;;;;;13.13;7.53;;;;;;;17.74;38.06;100915.63;4990585;28;20498;-71
2021/03/25 11:43:44;;;;;;;14.70;8.13;;;;;;;17.68;37.25;100905.66;5010606;28;20510;-70
2021/03/25 11:46:23;;;;;;;17.08;9.50;;;;;;;17.90;37.53;100903.88;5010475;28;20033;-72
2021/03/25 11:48:59;;;;;;;14.40;8.65;;;;;;;17.78;36.72;100903.53;4992593;28;20129;-70
2021/03/25 11:51:25;;;;;;;11.93;7.13;;;;;;;17.92;37.05;100906.34;5010431;28;20026;-71
2021/03/25 11:53:53;;;;;;;15.38;8.48;;;;;;;17.73;37.75;100902.41;5008589;28;20394;-71
2021/03/25 11:56:39;;;;;;;14.52;8.13;;;;;;;17.94;37.99;100901.63;4994822;28;20038;-71
2021/03/25 11:59:13;;;;;;;14.07;9.23;;;;;;;17.77;37.16;100901.84;4994044;28;20113;-71
2021/03/25 12:01:40;;;;;;;16.00;8.63;;;;;;;18.04;36.64;100899.47;4991906;28;20418;-71